Imperial, NE

9:56 AM MST on February 01, 2015 (GMT -0700)
Imperial Municipal | Change Station
CLOSE
Current Station
Airport
Location: Imperial,
Elevation: 3274 ft
Nearby Weather Stations

Elev 3274 ft 40.51 °N, 101.62 °W | Updated 8 minutes ago

Mostly Cloudy
Mostly Cloudy
12 °F
Feels Like -10 °F
N
34
Wind Variable Wind from North
Gusts 40 mph

Today
High -- | Low -- °F
--% Chance of Precip.
Yesterday
High -- | Low -- °F
Precip. -- in
6:56 AM 5:04 PM
Waxing Gibbous, 95% visible
Pressure 30.25 in
Visibility 2.0 miles
Clouds Few 1900 ft
Windchill -10 °F
Dew Point 3 °F
Humidity 67%
Rainfall 0.00 in
Snow Depth Not available.
UV 2 out of 12
Pollen .10 out of 12
Air Quality Not available.
Flu Activity Not available.
SPECI KIML 011648Z AUTO 35030G35KT 2SM BLSN FEW019 M11/M16 A3025 RMK AO2 PK WND 35037/1554 VIS 1 1/2V4

More Conditions Fewer Conditions

Pressure 30.25 in
Visibility 2.0 miles
Clouds Few 1900 ft
Windchill -10 °F
Dew Point 3 °F
Humidity 67%
Rainfall 0.00 in
Snow Depth Not available.
UV 2 out of 12
Pollen .10 out of 12
Air Quality Not available.
Flu Activity Not available.
SPECI KIML 011648Z AUTO 35030G35KT 2SM BLSN FEW019 M11/M16 A3025 RMK AO2 PK WND 35037/1554 VIS 1 1/2V4

More Conditions Fewer Conditions

Nowcast | as of 9:22 am CST on February 1, 2015

Accumulating snow has ended across much of western Nebraska...along and west of Highway 83...however strong northerly winds are being observed across the area...which may continue to cause blowing and drifting snow...especially in open areas. Motorists should be cautious due to snow covered roads and reduced visibilities from blowing snow.

×

10-Day Weather Forecast

Almanac

Astronomy

Feb. 01, 2015 Rise Set
Actual Time
Civil Twilight
Nautical Twilight
Astronomical Twilight
Moon
Length of Visible Light
Length of Day
Tomorrow will be .
, % of the Moon is Illuminated

Today's Extremes

State Highs State Lows

Community

WunderPhotos

Upload Photos

1,792,367 photos uploaded!

WunderBlogs® & News

Nearby

Air Quality

  Air Quality AQ Index Pollutant
Not available.

Snow Depth

Station Depth Elevation

Earthquake Activity

City Distance Mag. Time & Date
Minimum magnitude displayed is 2.5.

Coastal Water Temperatures

Place Temperature

Nearby Weather Stations